Pittsburgh, Pennsylvania
Traffic Map
Current Weather Conditions
Pittsburgh, Pennsylvania
Clear
Clear
24°
Feels Like: 17°
Wind Chill: 17° Ceiling: Unl
Heat Index: 24° Visibility: 10mi
Dew Point: 11° Wind: 6mph
Humidity: 57% Direction: 230° (SW)
Pressure: 30.24in Gusts: 0mph
Raw Report DataKAGC 312353Z 23005KT 10SM CLR M04/M12 A3024 RMK AO2 SLP267 T10441117 11033 21056 53004
Traffic Incident Summary
Active as of:
Severity:
Category:
InformationThere was an issue retrieving the traffic information for this location. Please try a different location or try again shortly.
Advertisements
Track Severe Weather on mobile